sensor_id;sensor_type;location;lat;lon;timestamp;P1;durP1;ratioP1;P2;durP2;ratioP2
22794;SDS011;11564;50.920;11.612;2023-06-19T00:00:08;6.97;;;6.27;;
22794;SDS011;11564;50.920;11.612;2023-06-19T00:02:41;8.80;;;6.20;;
22794;SDS011;11564;50.920;11.612;2023-06-19T00:05:07;7.60;;;6.90;;
22794;SDS011;11564;50.920;11.612;2023-06-19T00:07:35;7.27;;;6.57;;
22794;SDS011;11564;50.920;11.612;2023-06-19T00:10:01;6.80;;;6.20;;
22794;SDS011;11564;50.920;11.612;2023-06-19T00:12:27;14.00;;;6.70;;
22794;SDS011;11564;50.920;11.612;2023-06-19T00:14:53;6.73;;;6.13;;
22794;SDS011;11564;50.920;11.612;2023-06-19T00:17:19;6.70;;;6.00;;
22794;SDS011;11564;50.920;11.612;2023-06-19T00:19:44;7.53;;;6.73;;
22794;SDS011;11564;50.920;11.612;2023-06-19T00:22:10;7.67;;;6.97;;
22794;SDS011;11564;50.920;11.612;2023-06-19T00:24:36;9.90;;;6.20;;
22794;SDS011;11564;50.920;11.612;2023-06-19T00:27:01;7.10;;;6.30;;
22794;SDS011;11564;50.920;11.612;2023-06-19T00:29:28;6.50;;;5.90;;
22794;SDS011;11564;50.920;11.612;2023-06-19T00:31:54;7.13;;;6.37;;
22794;SDS011;11564;50.920;11.612;2023-06-19T00:34:20;10.20;;;6.17;;
22794;SDS011;11564;50.920;11.612;2023-06-19T00:36:49;6.93;;;5.40;;
22794;SDS011;11564;50.920;11.612;2023-06-19T00:39:15;7.47;;;6.67;;
22794;SDS011;11564;50.920;11.612;2023-06-19T00:41:41;7.37;;;6.23;;
22794;SDS011;11564;50.920;11.612;2023-06-19T00:44:09;7.37;;;6.67;;
22794;SDS011;11564;50.920;11.612;2023-06-19T00:46:36;8.57;;;7.70;;
22794;SDS011;11564;50.920;11.612;2023-06-19T00:49:05;7.03;;;6.33;;
22794;SDS011;11564;50.920;11.612;2023-06-19T00:51:31;8.67;;;6.77;;
22794;SDS011;11564;50.920;11.612;2023-06-19T00:53:56;6.87;;;6.27;;
22794;SDS011;11564;50.920;11.612;2023-06-19T00:56:22;7.67;;;6.97;;
22794;SDS011;11564;50.920;11.612;2023-06-19T00:58:48;7.83;;;7.13;;
22794;SDS011;11564;50.920;11.612;2023-06-19T01:01:14;6.93;;;6.30;;
22794;SDS011;11564;50.920;11.612;2023-06-19T01:03:40;7.60;;;6.80;;
22794;SDS011;11564;50.920;11.612;2023-06-19T01:06:07;7.10;;;6.50;;
22794;SDS011;11564;50.920;11.612;2023-06-19T01:11:11;7.50;;;6.90;;
22794;SDS011;11564;50.920;11.612;2023-06-19T01:13:42;7.10;;;6.17;;
22794;SDS011;11564;50.920;11.612;2023-06-19T01:16:12;8.47;;;7.67;;
22794;SDS011;11564;50.920;11.612;2023-06-19T01:18:39;8.37;;;7.57;;
22794;SDS011;11564;50.920;11.612;2023-06-19T01:21:09;8.17;;;7.23;;
22794;SDS011;11564;50.920;11.612;2023-06-19T01:23:39;7.60;;;6.90;;
22794;SDS011;11564;50.920;11.612;2023-06-19T01:26:05;9.17;;;7.90;;
22794;SDS011;11564;50.920;11.612;2023-06-19T01:28:32;7.60;;;6.87;;
22794;SDS011;11564;50.920;11.612;2023-06-19T01:31:00;8.33;;;7.37;;
22794;SDS011;11564;50.920;11.612;2023-06-19T01:33:27;8.23;;;7.27;;
22794;SDS011;11564;50.920;11.612;2023-06-19T01:35:56;6.83;;;6.17;;
22794;SDS011;11564;50.920;11.612;2023-06-19T01:38:24;7.70;;;7.00;;
22794;SDS011;11564;50.920;11.612;2023-06-19T01:40:52;9.60;;;7.60;;
22794;SDS011;11564;50.920;11.612;2023-06-19T01:43:19;8.20;;;7.40;;
22794;SDS011;11564;50.920;11.612;2023-06-19T01:45:45;8.40;;;7.13;;
22794;SDS011;11564;50.920;11.612;2023-06-19T01:48:11;8.43;;;7.57;;
22794;SDS011;11564;50.920;11.612;2023-06-19T01:50:38;8.27;;;7.47;;
22794;SDS011;11564;50.920;11.612;2023-06-19T01:53:05;7.60;;;6.80;;
22794;SDS011;11564;50.920;11.612;2023-06-19T01:55:30;7.05;;;6.40;;
22794;SDS011;11564;50.920;11.612;2023-06-19T01:57:57;8.93;;;7.83;;
22794;SDS011;11564;50.920;11.612;2023-06-19T02:00:23;8.07;;;7.27;;
22794;SDS011;11564;50.920;11.612;2023-06-19T02:02:48;11.33;;;6.57;;
22794;SDS011;11564;50.920;11.612;2023-06-19T02:05:14;8.30;;;7.50;;
22794;SDS011;11564;50.920;11.612;2023-06-19T02:07:40;8.87;;;7.20;;
22794;SDS011;11564;50.920;11.612;2023-06-19T02:10:06;8.40;;;7.60;;
22794;SDS011;11564;50.920;11.612;2023-06-19T02:12:33;8.47;;;7.50;;
22794;SDS011;11564;50.920;11.612;2023-06-19T02:14:59;11.43;;;7.20;;
22794;SDS011;11564;50.920;11.612;2023-06-19T02:17:24;9.10;;;7.70;;
22794;SDS011;11564;50.920;11.612;2023-06-19T02:19:50;12.80;;;7.23;;
22794;SDS011;11564;50.920;11.612;2023-06-19T02:22:16;8.63;;;7.70;;
22794;SDS011;11564;50.920;11.612;2023-06-19T02:24:42;8.63;;;7.87;;
22794;SDS011;11564;50.920;11.612;2023-06-19T02:27:09;9.47;;;7.70;;
22794;SDS011;11564;50.920;11.612;2023-06-19T02:29:35;11.03;;;8.13;;
22794;SDS011;11564;50.920;11.612;2023-06-19T02:32:02;10.23;;;7.63;;
22794;SDS011;11564;50.920;11.612;2023-06-19T02:34:27;13.07;;;7.87;;
22794;SDS011;11564;50.920;11.612;2023-06-19T02:36:53;10.73;;;7.87;;
22794;SDS011;11564;50.920;11.612;2023-06-19T02:39:19;8.50;;;6.83;;
22794;SDS011;11564;50.920;11.612;2023-06-19T02:41:46;8.40;;;7.70;;
22794;SDS011;11564;50.920;11.612;2023-06-19T02:44:12;8.80;;;7.40;;
22794;SDS011;11564;50.920;11.612;2023-06-19T02:46:37;8.73;;;7.93;;
22794;SDS011;11564;50.920;11.612;2023-06-19T02:49:03;9.97;;;8.20;;
22794;SDS011;11564;50.920;11.612;2023-06-19T02:51:29;8.93;;;7.60;;
22794;SDS011;11564;50.920;11.612;2023-06-19T02:53:55;11.60;;;8.00;;
22794;SDS011;11564;50.920;11.612;2023-06-19T02:56:21;10.00;;;9.00;;
22794;SDS011;11564;50.920;11.612;2023-06-19T02:58:47;19.70;;;8.90;;
22794;SDS011;11564;50.920;11.612;2023-06-19T03:01:13;8.60;;;7.70;;
22794;SDS011;11564;50.920;11.612;2023-06-19T03:03:39;8.97;;;8.07;;
22794;SDS011;11564;50.920;11.612;2023-06-19T03:06:06;9.67;;;8.77;;
22794;SDS011;11564;50.920;11.612;2023-06-19T03:08:35;11.50;;;9.43;;
22794;SDS011;11564;50.920;11.612;2023-06-19T03:11:02;10.70;;;9.60;;
22794;SDS011;11564;50.920;11.612;2023-06-19T03:13:33;10.73;;;9.53;;
22794;SDS011;11564;50.920;11.612;2023-06-19T03:16:08;9.97;;;9.00;;
22794;SDS011;11564;50.920;11.612;2023-06-19T03:18:34;10.30;;;8.17;;
22794;SDS011;11564;50.920;11.612;2023-06-19T03:21:00;10.50;;;8.40;;
22794;SDS011;11564;50.920;11.612;2023-06-19T03:23:25;10.57;;;9.03;;
22794;SDS011;11564;50.920;11.612;2023-06-19T03:25:51;10.27;;;9.27;;
22794;SDS011;11564;50.920;11.612;2023-06-19T03:28:16;10.60;;;8.77;;
22794;SDS011;11564;50.920;11.612;2023-06-19T03:30:42;12.33;;;9.17;;
22794;SDS011;11564;50.920;11.612;2023-06-19T03:33:07;9.57;;;8.60;;
22794;SDS011;11564;50.920;11.612;2023-06-19T03:35:33;10.33;;;9.10;;
22794;SDS011;11564;50.920;11.612;2023-06-19T03:37:59;10.93;;;9.83;;
22794;SDS011;11564;50.920;11.612;2023-06-19T03:40:24;12.77;;;9.57;;
22794;SDS011;11564;50.920;11.612;2023-06-19T03:42:50;11.10;;;9.90;;
22794;SDS011;11564;50.920;11.612;2023-06-19T03:45:16;10.17;;;9.17;;
22794;SDS011;11564;50.920;11.612;2023-06-19T03:47:41;10.80;;;9.70;;
22794;SDS011;11564;50.920;11.612;2023-06-19T03:50:07;11.43;;;9.60;;
22794;SDS011;11564;50.920;11.612;2023-06-19T03:52:35;11.80;;;10.60;;
22794;SDS011;11564;50.920;11.612;2023-06-19T03:55:02;10.50;;;9.50;;
22794;SDS011;11564;50.920;11.612;2023-06-19T03:57:28;10.43;;;9.30;;
22794;SDS011;11564;50.920;11.612;2023-06-19T03:59:54;10.97;;;9.97;;
22794;SDS011;11564;50.920;11.612;2023-06-19T04:02:19;11.47;;;10.30;;
22794;SDS011;11564;50.920;11.612;2023-06-19T04:04:45;19.33;;;10.13;;
22794;SDS011;11564;50.920;11.612;2023-06-19T04:07:11;13.90;;;10.00;;
22794;SDS011;11564;50.920;11.612;2023-06-19T04:09:36;12.03;;;9.70;;
22794;SDS011;11564;50.920;11.612;2023-06-19T04:12:02;11.37;;;10.27;;
22794;SDS011;11564;50.920;11.612;2023-06-19T04:14:28;16.30;;;9.50;;
22794;SDS011;11564;50.920;11.612;2023-06-19T04:16:53;12.90;;;10.00;;
22794;SDS011;11564;50.920;11.612;2023-06-19T04:19:19;10.70;;;9.60;;
22794;SDS011;11564;50.920;11.612;2023-06-19T04:21:45;12.70;;;10.63;;
22794;SDS011;11564;50.920;11.612;2023-06-19T04:24:10;11.43;;;10.33;;
22794;SDS011;11564;50.920;11.612;2023-06-19T04:26:36;12.20;;;10.30;;
22794;SDS011;11564;50.920;11.612;2023-06-19T04:29:02;14.20;;;10.80;;
22794;SDS011;11564;50.920;11.612;2023-06-19T04:31:28;11.27;;;10.10;;
22794;SDS011;11564;50.920;11.612;2023-06-19T04:33:55;12.70;;;9.60;;
22794;SDS011;11564;50.920;11.612;2023-06-19T04:36:21;13.97;;;8.90;;
22794;SDS011;11564;50.920;11.612;2023-06-19T04:38:48;11.00;;;10.00;;
22794;SDS011;11564;50.920;11.612;2023-06-19T04:41:16;11.03;;;9.73;;
22794;SDS011;11564;50.920;11.612;2023-06-19T04:43:42;12.77;;;10.00;;
22794;SDS011;11564;50.920;11.612;2023-06-19T04:46:07;11.73;;;10.40;;
22794;SDS011;11564;50.920;11.612;2023-06-19T04:48:33;10.90;;;9.87;;
22794;SDS011;11564;50.920;11.612;2023-06-19T04:51:01;13.37;;;10.37;;
22794;SDS011;11564;50.920;11.612;2023-06-19T04:53:27;10.63;;;9.53;;
22794;SDS011;11564;50.920;11.612;2023-06-19T04:55:53;11.47;;;10.03;;
22794;SDS011;11564;50.920;11.612;2023-06-19T04:58:20;11.47;;;10.10;;
22794;SDS011;11564;50.920;11.612;2023-06-19T05:00:48;12.10;;;10.50;;
22794;SDS011;11564;50.920;11.612;2023-06-19T05:03:16;10.27;;;9.23;;
22794;SDS011;11564;50.920;11.612;2023-06-19T05:05:43;11.40;;;9.03;;
22794;SDS011;11564;50.920;11.612;2023-06-19T05:08:09;11.80;;;10.53;;
22794;SDS011;11564;50.920;11.612;2023-06-19T05:10:34;11.30;;;10.10;;
22794;SDS011;11564;50.920;11.612;2023-06-19T05:13:00;11.80;;;10.60;;
22794;SDS011;11564;50.920;11.612;2023-06-19T05:15:27;10.70;;;9.30;;
22794;SDS011;11564;50.920;11.612;2023-06-19T05:17:53;9.37;;;8.57;;
22794;SDS011;11564;50.920;11.612;2023-06-19T05:20:18;10.83;;;9.73;;
22794;SDS011;11564;50.920;11.612;2023-06-19T05:22:44;9.87;;;8.97;;
22794;SDS011;11564;50.920;11.612;2023-06-19T05:25:10;10.97;;;9.87;;
22794;SDS011;11564;50.920;11.612;2023-06-19T05:27:36;12.47;;;10.47;;
22794;SDS011;11564;50.920;11.612;2023-06-19T05:30:01;12.20;;;10.27;;
22794;SDS011;11564;50.920;11.612;2023-06-19T05:32:29;11.33;;;10.20;;
22794;SDS011;11564;50.920;11.612;2023-06-19T05:34:54;11.10;;;9.57;;
22794;SDS011;11564;50.920;11.612;2023-06-19T05:37:20;11.13;;;10.03;;
22794;SDS011;11564;50.920;11.612;2023-06-19T05:39:47;21.53;;;12.80;;
22794;SDS011;11564;50.920;11.612;2023-06-19T05:42:13;13.13;;;10.13;;
22794;SDS011;11564;50.920;11.612;2023-06-19T05:44:39;14.70;;;12.07;;
22794;SDS011;11564;50.920;11.612;2023-06-19T05:47:05;15.00;;;12.50;;
22794;SDS011;11564;50.920;11.612;2023-06-19T05:49:31;13.83;;;10.90;;
22794;SDS011;11564;50.920;11.612;2023-06-19T05:51:57;16.13;;;11.90;;
22794;SDS011;11564;50.920;11.612;2023-06-19T05:54:25;13.90;;;11.60;;
22794;SDS011;11564;50.920;11.612;2023-06-19T05:56:51;19.03;;;12.53;;
22794;SDS011;11564;50.920;11.612;2023-06-19T05:59:17;16.50;;;12.53;;
22794;SDS011;11564;50.920;11.612;2023-06-19T06:01:43;18.10;;;12.07;;
22794;SDS011;11564;50.920;11.612;2023-06-19T06:04:08;13.73;;;12.43;;
22794;SDS011;11564;50.920;11.612;2023-06-19T06:06:34;13.73;;;12.33;;
22794;SDS011;11564;50.920;11.612;2023-06-19T06:09:00;14.63;;;11.83;;
22794;SDS011;11564;50.920;11.612;2023-06-19T06:11:26;16.13;;;12.00;;
22794;SDS011;11564;50.920;11.612;2023-06-19T06:13:51;12.90;;;11.63;;
22794;SDS011;11564;50.920;11.612;2023-06-19T06:16:17;12.40;;;11.10;;
22794;SDS011;11564;50.920;11.612;2023-06-19T06:18:44;13.30;;;11.90;;
22794;SDS011;11564;50.920;11.612;2023-06-19T06:21:10;13.13;;;11.73;;
22794;SDS011;11564;50.920;11.612;2023-06-19T06:23:37;15.57;;;11.90;;
22794;SDS011;11564;50.920;11.612;2023-06-19T06:26:05;22.57;;;11.83;;
22794;SDS011;11564;50.920;11.612;2023-06-19T06:28:31;21.10;;;12.60;;
22794;SDS011;11564;50.920;11.612;2023-06-19T06:30:56;16.57;;;13.00;;
22794;SDS011;11564;50.920;11.612;2023-06-19T06:33:22;16.67;;;12.70;;
22794;SDS011;11564;50.920;11.612;2023-06-19T06:35:48;17.03;;;12.30;;
22794;SDS011;11564;50.920;11.612;2023-06-19T06:38:14;16.73;;;12.77;;
22794;SDS011;11564;50.920;11.612;2023-06-19T06:40:39;14.60;;;12.50;;
22794;SDS011;11564;50.920;11.612;2023-06-19T06:43:06;14.97;;;13.37;;
22794;SDS011;11564;50.920;11.612;2023-06-19T06:45:32;19.27;;;12.07;;
22794;SDS011;11564;50.920;11.612;2023-06-19T06:47:57;14.37;;;12.87;;
22794;SDS011;11564;50.920;11.612;2023-06-19T06:50:23;17.83;;;12.40;;
22794;SDS011;11564;50.920;11.612;2023-06-19T06:52:49;29.20;;;14.13;;
22794;SDS011;11564;50.920;11.612;2023-06-19T06:55:14;17.27;;;12.57;;
22794;SDS011;11564;50.920;11.612;2023-06-19T06:57:40;15.20;;;13.07;;
22794;SDS011;11564;50.920;11.612;2023-06-19T07:00:05;22.40;;;12.63;;
22794;SDS011;11564;50.920;11.612;2023-06-19T07:02:34;13.63;;;10.60;;
22794;SDS011;11564;50.920;11.612;2023-06-19T07:05:00;17.70;;;12.20;;
22794;SDS011;11564;50.920;11.612;2023-06-19T07:07:25;19.83;;;12.10;;
22794;SDS011;11564;50.920;11.612;2023-06-19T07:09:51;17.90;;;11.90;;
22794;SDS011;11564;50.920;11.612;2023-06-19T07:12:17;12.53;;;10.50;;
22794;SDS011;11564;50.920;11.612;2023-06-19T07:14:42;16.53;;;11.87;;
22794;SDS011;11564;50.920;11.612;2023-06-19T07:17:08;20.20;;;13.17;;
22794;SDS011;11564;50.920;11.612;2023-06-19T07:19:34;27.27;;;12.50;;
22794;SDS011;11564;50.920;11.612;2023-06-19T07:21:59;20.07;;;11.90;;
22794;SDS011;11564;50.920;11.612;2023-06-19T07:24:25;16.33;;;12.30;;
22794;SDS011;11564;50.920;11.612;2023-06-19T07:26:51;20.87;;;11.70;;
22794;SDS011;11564;50.920;11.612;2023-06-19T07:29:16;17.00;;;11.13;;
22794;SDS011;11564;50.920;11.612;2023-06-19T07:31:42;22.00;;;11.73;;
22794;SDS011;11564;50.920;11.612;2023-06-19T07:34:08;24.60;;;13.17;;
22794;SDS011;11564;50.920;11.612;2023-06-19T07:36:33;16.90;;;11.80;;
22794;SDS011;11564;50.920;11.612;2023-06-19T07:38:59;11.13;;;10.07;;
22794;SDS011;11564;50.920;11.612;2023-06-19T07:41:25;20.47;;;10.40;;
22794;SDS011;11564;50.920;11.612;2023-06-19T07:43:50;17.27;;;9.60;;
22794;SDS011;11564;50.920;11.612;2023-06-19T07:46:16;14.20;;;10.97;;
22794;SDS011;11564;50.920;11.612;2023-06-19T07:48:42;17.70;;;9.60;;
22794;SDS011;11564;50.920;11.612;2023-06-19T07:51:07;14.10;;;8.87;;
22794;SDS011;11564;50.920;11.612;2023-06-19T07:53:33;10.00;;;9.00;;
22794;SDS011;11564;50.920;11.612;2023-06-19T07:55:59;12.57;;;9.33;;
22794;SDS011;11564;50.920;11.612;2023-06-19T07:58:24;13.50;;;9.10;;
22794;SDS011;11564;50.920;11.612;2023-06-19T08:00:50;17.13;;;7.93;;
22794;SDS011;11564;50.920;11.612;2023-06-19T08:03:15;10.03;;;7.90;;
22794;SDS011;11564;50.920;11.612;2023-06-19T08:05:41;9.27;;;7.60;;
22794;SDS011;11564;50.920;11.612;2023-06-19T08:08:07;9.90;;;8.40;;
22794;SDS011;11564;50.920;11.612;2023-06-19T08:10:32;11.83;;;8.43;;
22794;SDS011;11564;50.920;11.612;2023-06-19T08:12:58;19.47;;;9.13;;
22794;SDS011;11564;50.920;11.612;2023-06-19T08:15:23;20.83;;;10.27;;
22794;SDS011;11564;50.920;11.612;2023-06-19T08:17:49;24.10;;;10.70;;
22794;SDS011;11564;50.920;11.612;2023-06-19T08:20:15;11.60;;;9.43;;
22794;SDS011;11564;50.920;11.612;2023-06-19T08:22:40;11.87;;;9.17;;
22794;SDS011;11564;50.920;11.612;2023-06-19T08:25:06;11.40;;;9.30;;
22794;SDS011;11564;50.920;11.612;2023-06-19T08:27:32;11.70;;;9.50;;
22794;SDS011;11564;50.920;11.612;2023-06-19T08:29:58;9.87;;;8.83;;
22794;SDS011;11564;50.920;11.612;2023-06-19T08:32:23;9.83;;;8.70;;
22794;SDS011;11564;50.920;11.612;2023-06-19T08:34:50;11.40;;;9.53;;
22794;SDS011;11564;50.920;11.612;2023-06-19T08:37:17;10.03;;;9.13;;
22794;SDS011;11564;50.920;11.612;2023-06-19T08:39:45;11.90;;;9.90;;
22794;SDS011;11564;50.920;11.612;2023-06-19T08:42:11;11.40;;;8.83;;
22794;SDS011;11564;50.920;11.612;2023-06-19T08:44:36;8.63;;;7.83;;
22794;SDS011;11564;50.920;11.612;2023-06-19T08:47:02;10.57;;;9.33;;
22794;SDS011;11564;50.920;11.612;2023-06-19T08:49:29;10.50;;;9.40;;
22794;SDS011;11564;50.920;11.612;2023-06-19T08:51:56;10.00;;;8.93;;
22794;SDS011;11564;50.920;11.612;2023-06-19T08:54:21;9.90;;;9.00;;
22794;SDS011;11564;50.920;11.612;2023-06-19T08:56:47;9.60;;;8.70;;
22794;SDS011;11564;50.920;11.612;2023-06-19T08:59:14;7.90;;;7.30;;
22794;SDS011;11564;50.920;11.612;2023-06-19T09:01:47;10.50;;;9.43;;
22794;SDS011;11564;50.920;11.612;2023-06-19T09:04:17;9.50;;;8.57;;
22794;SDS011;11564;50.920;11.612;2023-06-19T09:09:21;8.80;;;8.10;;
22794;SDS011;11564;50.920;11.612;2023-06-19T09:11:57;9.10;;;8.20;;
22794;SDS011;11564;50.920;11.612;2023-06-19T09:14:34;9.63;;;8.73;;
22794;SDS011;11564;50.920;11.612;2023-06-19T09:17:01;9.00;;;8.20;;
22794;SDS011;11564;50.920;11.612;2023-06-19T09:19:28;8.67;;;7.97;;
22794;SDS011;11564;50.920;11.612;2023-06-19T09:22:04;10.83;;;9.20;;
22794;SDS011;11564;50.920;11.612;2023-06-19T09:24:35;14.03;;;10.47;;
22794;SDS011;11564;50.920;11.612;2023-06-19T09:27:06;10.90;;;8.70;;
22794;SDS011;11564;50.920;11.612;2023-06-19T09:29:38;9.20;;;8.40;;
22794;SDS011;11564;50.920;11.612;2023-06-19T09:32:25;10.57;;;8.03;;
22794;SDS011;11564;50.920;11.612;2023-06-19T09:34:54;8.40;;;7.60;;
22794;SDS011;11564;50.920;11.612;2023-06-19T09:37:22;18.73;;;8.43;;
22794;SDS011;11564;50.920;11.612;2023-06-19T09:39:52;9.90;;;8.57;;
22794;SDS011;11564;50.920;11.612;2023-06-19T09:42:24;11.73;;;8.07;;
22794;SDS011;11564;50.920;11.612;2023-06-19T09:44:55;8.57;;;7.87;;
22794;SDS011;11564;50.920;11.612;2023-06-19T09:47:35;9.23;;;8.33;;
22794;SDS011;11564;50.920;11.612;2023-06-19T09:50:02;9.07;;;8.17;;
22794;SDS011;11564;50.920;11.612;2023-06-19T09:52:29;8.23;;;7.50;;
22794;SDS011;11564;50.920;11.612;2023-06-19T09:54:55;7.77;;;7.07;;
22794;SDS011;11564;50.920;11.612;2023-06-19T09:57:22;8.57;;;7.77;;
22794;SDS011;11564;50.920;11.612;2023-06-19T09:59:53;11.63;;;8.23;;
22794;SDS011;11564;50.920;11.612;2023-06-19T10:02:21;9.53;;;8.20;;
22794;SDS011;11564;50.920;11.612;2023-06-19T10:04:54;9.30;;;7.67;;
22794;SDS011;11564;50.920;11.612;2023-06-19T10:07:22;10.30;;;7.50;;
22794;SDS011;11564;50.920;11.612;2023-06-19T10:12:34;7.57;;;6.87;;
22794;SDS011;11564;50.920;11.612;2023-06-19T10:15:08;9.50;;;7.13;;
22794;SDS011;11564;50.920;11.612;2023-06-19T10:17:34;8.50;;;7.60;;
22794;SDS011;11564;50.920;11.612;2023-06-19T10:19:59;9.20;;;7.93;;
22794;SDS011;11564;50.920;11.612;2023-06-19T10:22:29;7.50;;;6.60;;
22794;SDS011;11564;50.920;11.612;2023-06-19T10:24:56;8.73;;;6.77;;
22794;SDS011;11564;50.920;11.612;2023-06-19T10:27:22;11.10;;;6.70;;
22794;SDS011;11564;50.920;11.612;2023-06-19T10:29:54;7.80;;;6.83;;
22794;SDS011;11564;50.920;11.612;2023-06-19T10:32:22;7.57;;;6.87;;
22794;SDS011;11564;50.920;11.612;2023-06-19T10:34:48;6.57;;;6.07;;
22794;SDS011;11564;50.920;11.612;2023-06-19T10:37:17;6.43;;;5.83;;
22794;SDS011;11564;50.920;11.612;2023-06-19T10:39:43;7.30;;;6.60;;
22794;SDS011;11564;50.920;11.612;2023-06-19T10:42:09;6.87;;;6.30;;
22794;SDS011;11564;50.920;11.612;2023-06-19T10:44:35;8.07;;;6.13;;
22794;SDS011;11564;50.920;11.612;2023-06-19T10:47:04;10.43;;;6.80;;
22794;SDS011;11564;50.920;11.612;2023-06-19T10:49:32;8.33;;;5.37;;
22794;SDS011;11564;50.920;11.612;2023-06-19T10:52:00;6.10;;;5.60;;
22794;SDS011;11564;50.920;11.612;2023-06-19T10:54:25;7.13;;;5.87;;
22794;SDS011;11564;50.920;11.612;2023-06-19T10:56:53;9.17;;;5.77;;
22794;SDS011;11564;50.920;11.612;2023-06-19T10:59:19;5.73;;;5.30;;
22794;SDS011;11564;50.920;11.612;2023-06-19T11:01:48;5.90;;;5.40;;
22794;SDS011;11564;50.920;11.612;2023-06-19T11:04:15;6.50;;;5.13;;
22794;SDS011;11564;50.920;11.612;2023-06-19T11:06:42;12.40;;;5.73;;
22794;SDS011;11564;50.920;11.612;2023-06-19T11:09:09;5.40;;;5.00;;
22794;SDS011;11564;50.920;11.612;2023-06-19T11:11:43;7.30;;;6.10;;
22794;SDS011;11564;50.920;11.612;2023-06-19T11:14:10;5.80;;;5.30;;
22794;SDS011;11564;50.920;11.612;2023-06-19T11:16:44;5.53;;;5.03;;
22794;SDS011;11564;50.920;11.612;2023-06-19T11:19:18;6.17;;;5.57;;
22794;SDS011;11564;50.920;11.612;2023-06-19T11:21:45;6.10;;;5.60;;
22794;SDS011;11564;50.920;11.612;2023-06-19T11:24:14;6.60;;;6.00;;
22794;SDS011;11564;50.920;11.612;2023-06-19T11:26:43;5.17;;;4.67;;
22794;SDS011;11564;50.920;11.612;2023-06-19T11:29:18;6.00;;;5.60;;
22794;SDS011;11564;50.920;11.612;2023-06-19T11:31:46;6.00;;;5.40;;
22794;SDS011;11564;50.920;11.612;2023-06-19T11:34:12;8.00;;;5.40;;
22794;SDS011;11564;50.920;11.612;2023-06-19T11:36:39;7.87;;;5.20;;
22794;SDS011;11564;50.920;11.612;2023-06-19T11:39:09;6.53;;;5.93;;
22794;SDS011;11564;50.920;11.612;2023-06-19T11:41:37;5.57;;;4.93;;
22794;SDS011;11564;50.920;11.612;2023-06-19T11:44:04;7.03;;;6.33;;
22794;SDS011;11564;50.920;11.612;2023-06-19T11:46:31;6.40;;;5.70;;
22794;SDS011;11564;50.920;11.612;2023-06-19T11:49:07;5.97;;;5.57;;
22794;SDS011;11564;50.920;11.612;2023-06-19T11:51:33;6.50;;;5.90;;
22794;SDS011;11564;50.920;11.612;2023-06-19T11:53:58;6.00;;;5.50;;
22794;SDS011;11564;50.920;11.612;2023-06-19T11:56:24;5.70;;;5.03;;
22794;SDS011;11564;50.920;11.612;2023-06-19T11:58:49;8.60;;;5.07;;
22794;SDS011;11564;50.920;11.612;2023-06-19T12:01:15;5.83;;;5.33;;
22794;SDS011;11564;50.920;11.612;2023-06-19T12:03:41;5.83;;;5.23;;
22794;SDS011;11564;50.920;11.612;2023-06-19T12:06:06;6.60;;;4.90;;
22794;SDS011;11564;50.920;11.612;2023-06-19T12:08:32;4.93;;;4.53;;
22794;SDS011;11564;50.920;11.612;2023-06-19T12:10:58;5.43;;;4.93;;
22794;SDS011;11564;50.920;11.612;2023-06-19T12:13:24;5.50;;;4.93;;
22794;SDS011;11564;50.920;11.612;2023-06-19T12:15:49;5.77;;;5.17;;
22794;SDS011;11564;50.920;11.612;2023-06-19T12:18:15;7.40;;;5.60;;
22794;SDS011;11564;50.920;11.612;2023-06-19T12:20:40;5.60;;;5.10;;
22794;SDS011;11564;50.920;11.612;2023-06-19T12:23:06;4.93;;;4.43;;
22794;SDS011;11564;50.920;11.612;2023-06-19T12:25:32;4.70;;;4.30;;
22794;SDS011;11564;50.920;11.612;2023-06-19T12:27:57;4.83;;;4.53;;
22794;SDS011;11564;50.920;11.612;2023-06-19T12:30:23;5.17;;;4.77;;
22794;SDS011;11564;50.920;11.612;2023-06-19T12:32:49;6.77;;;4.60;;
22794;SDS011;11564;50.920;11.612;2023-06-19T12:35:15;4.80;;;4.40;;
22794;SDS011;11564;50.920;11.612;2023-06-19T12:37:41;8.90;;;4.83;;
22794;SDS011;11564;50.920;11.612;2023-06-19T12:40:07;4.53;;;4.20;;
22794;SDS011;11564;50.920;11.612;2023-06-19T12:42:36;4.60;;;4.20;;
22794;SDS011;11564;50.920;11.612;2023-06-19T12:45:02;9.57;;;4.40;;
22794;SDS011;11564;50.920;11.612;2023-06-19T12:47:28;4.70;;;4.40;;
22794;SDS011;11564;50.920;11.612;2023-06-19T12:49:54;5.23;;;4.70;;
22794;SDS011;11564;50.920;11.612;2023-06-19T12:52:19;5.63;;;5.10;;
22794;SDS011;11564;50.920;11.612;2023-06-19T12:54:45;5.63;;;5.10;;
22794;SDS011;11564;50.920;11.612;2023-06-19T12:57:11;4.90;;;4.60;;
22794;SDS011;11564;50.920;11.612;2023-06-19T12:59:36;5.70;;;5.30;;
22794;SDS011;11564;50.920;11.612;2023-06-19T13:02:02;6.13;;;5.53;;
22794;SDS011;11564;50.920;11.612;2023-06-19T13:04:28;12.10;;;5.43;;
22794;SDS011;11564;50.920;11.612;2023-06-19T13:06:53;6.03;;;5.53;;
22794;SDS011;11564;50.920;11.612;2023-06-19T13:09:19;7.73;;;5.93;;
22794;SDS011;11564;50.920;11.612;2023-06-19T13:11:45;5.30;;;4.90;;
22794;SDS011;11564;50.920;11.612;2023-06-19T13:14:10;5.70;;;5.27;;
22794;SDS011;11564;50.920;11.612;2023-06-19T13:16:36;6.80;;;6.30;;
22794;SDS011;11564;50.920;11.612;2023-06-19T13:19:01;6.00;;;5.60;;
22794;SDS011;11564;50.920;11.612;2023-06-19T13:21:27;9.20;;;6.60;;
22794;SDS011;11564;50.920;11.612;2023-06-19T13:23:53;8.67;;;5.97;;
22794;SDS011;11564;50.920;11.612;2023-06-19T13:26:18;7.43;;;6.63;;
22794;SDS011;11564;50.920;11.612;2023-06-19T13:28:44;8.30;;;7.57;;
22794;SDS011;11564;50.920;11.612;2023-06-19T13:31:10;8.33;;;7.53;;
22794;SDS011;11564;50.920;11.612;2023-06-19T13:33:35;10.90;;;9.80;;
22794;SDS011;11564;50.920;11.612;2023-06-19T13:36:01;10.53;;;7.27;;
22794;SDS011;11564;50.920;11.612;2023-06-19T13:38:26;9.73;;;8.83;;
22794;SDS011;11564;50.920;11.612;2023-06-19T13:40:52;8.10;;;7.40;;
22794;SDS011;11564;50.920;11.612;2023-06-19T13:43:18;8.73;;;7.97;;
22794;SDS011;11564;50.920;11.612;2023-06-19T13:45:45;11.43;;;7.63;;
22794;SDS011;11564;50.920;11.612;2023-06-19T13:48:10;7.93;;;7.20;;
22794;SDS011;11564;50.920;11.612;2023-06-19T13:50:36;8.67;;;7.90;;
22794;SDS011;11564;50.920;11.612;2023-06-19T13:53:01;7.70;;;7.10;;
22794;SDS011;11564;50.920;11.612;2023-06-19T13:55:27;7.27;;;6.70;;
22794;SDS011;11564;50.920;11.612;2023-06-19T13:57:53;8.00;;;7.30;;
22794;SDS011;11564;50.920;11.612;2023-06-19T14:00:19;8.30;;;7.50;;
22794;SDS011;11564;50.920;11.612;2023-06-19T14:02:45;10.17;;;7.57;;
22794;SDS011;11564;50.920;11.612;2023-06-19T14:05:11;8.20;;;7.40;;
22794;SDS011;11564;50.920;11.612;2023-06-19T14:07:40;8.03;;;6.87;;
22794;SDS011;11564;50.920;11.612;2023-06-19T14:10:06;7.87;;;7.13;;
22794;SDS011;11564;50.920;11.612;2023-06-19T14:12:32;7.17;;;6.67;;
22794;SDS011;11564;50.920;11.612;2023-06-19T14:14:57;7.07;;;6.37;;
22794;SDS011;11564;50.920;11.612;2023-06-19T14:17:23;13.70;;;5.60;;
22794;SDS011;11564;50.920;11.612;2023-06-19T14:19:49;5.10;;;4.67;;
22794;SDS011;11564;50.920;11.612;2023-06-19T14:22:15;9.13;;;4.50;;
22794;SDS011;11564;50.920;11.612;2023-06-19T14:24:42;4.90;;;4.57;;
22794;SDS011;11564;50.920;11.612;2023-06-19T14:27:07;6.63;;;3.67;;
22794;SDS011;11564;50.920;11.612;2023-06-19T14:29:33;4.68;;;4.28;;